createdAt,value
2018-04-02T00:01:47.363Z,14.60
2018-04-02T00:04:17.060Z,15.53
2018-04-02T00:06:47.191Z,12.40
2018-04-02T00:09:17.093Z,14.43
2018-04-02T00:11:46.439Z,15.57
2018-04-02T00:14:15.535Z,15.70
2018-04-02T00:16:44.707Z,15.30
2018-04-02T00:19:13.697Z,15.17
2018-04-02T00:21:42.900Z,14.60
2018-04-02T00:24:12.780Z,15.70
2018-04-02T00:26:42.664Z,15.60
2018-04-02T00:29:11.660Z,16.37
2018-04-02T00:31:40.782Z,14.40
2018-04-02T00:34:09.748Z,12.57
2018-04-02T00:36:38.874Z,13.40
2018-04-02T00:39:08.651Z,13.07
2018-04-02T00:41:38.131Z,14.53
2018-04-02T00:44:07.235Z,13.17
2018-04-02T00:46:37.347Z,11.80
2018-04-02T00:49:07.046Z,11.57
2018-04-02T00:51:36.123Z,14.27
2018-04-02T00:54:05.867Z,12.97
2018-04-02T00:56:35.687Z,13.13
2018-04-02T00:59:05.521Z,14.00
2018-04-02T01:01:34.625Z,13.03
2018-04-02T01:04:03.818Z,13.03
2018-04-02T01:06:33.091Z,11.57
2018-04-02T01:09:03.110Z,12.80
2018-04-02T01:11:32.990Z,12.40
2018-04-02T01:14:01.955Z,13.87
2018-04-02T01:16:31.083Z,12.23
2018-04-02T01:19:01.000Z,12.23
2018-04-02T01:21:30.168Z,13.37
2018-04-02T01:24:01.075Z,11.67
2018-04-02T01:26:30.202Z,13.90
2018-04-02T01:28:59.402Z,12.70
2018-04-02T01:31:28.466Z,12.90
2018-04-02T01:33:57.446Z,11.60
2018-04-02T01:36:26.246Z,11.67
2018-04-02T01:38:55.270Z,13.33
2018-04-02T01:41:24.375Z,11.90
2018-04-02T01:43:53.366Z,12.70
2018-04-02T01:46:22.467Z,11.67
2018-04-02T01:48:51.463Z,12.80
2018-04-02T01:51:20.586Z,12.40
2018-04-02T01:53:50.587Z,13.50
2018-04-02T01:56:19.851Z,14.43
2018-04-02T01:58:49.547Z,12.13
2018-04-02T02:01:18.610Z,12.70
2018-04-02T02:03:48.496Z,13.00
2018-04-02T02:06:17.970Z,13.63
2018-04-02T02:08:47.080Z,11.20
2018-04-02T02:11:17.920Z,13.57
2018-04-02T02:13:46.830Z,11.00
2018-04-02T02:16:15.899Z,13.50
2018-04-02T02:18:45.130Z,11.70
2018-04-02T02:21:14.194Z,11.00
2018-04-02T02:23:44.012Z,13.53
2018-04-02T02:26:14.493Z,11.47
2018-04-02T02:28:43.530Z,11.70
2018-04-02T02:31:12.830Z,12.80
2018-04-02T02:33:42.749Z,11.43
2018-04-02T02:36:12.622Z,14.23
2018-04-02T02:38:41.587Z,11.17
2018-04-02T02:41:10.695Z,12.73
2018-04-02T02:43:39.738Z,12.63
2018-04-02T02:46:08.850Z,11.57
2018-04-02T02:48:38.692Z,13.20
2018-04-02T02:51:07.966Z,11.33
2018-04-02T02:53:37.866Z,12.67
2018-04-02T02:56:07.180Z,12.33
2018-04-02T02:58:36.306Z,12.30
2018-04-02T03:01:05.681Z,12.50
2018-04-02T03:03:34.817Z,11.23
2018-04-02T03:06:03.942Z,11.23
2018-04-02T03:08:32.860Z,12.93
2018-04-02T03:11:01.936Z,11.10
2018-04-02T03:13:31.064Z,11.27
2018-04-02T03:16:00.119Z,12.27
2018-04-02T03:18:29.052Z,11.37
2018-04-02T03:20:58.546Z,11.97
2018-04-02T03:23:27.719Z,11.37
2018-04-02T03:25:56.987Z,11.00
2018-04-02T03:28:25.984Z,14.13
2018-04-02T03:30:55.156Z,11.93
2018-04-02T03:33:24.080Z,11.70
2018-04-02T03:35:53.348Z,12.30
2018-04-02T03:38:22.446Z,11.63
2018-04-02T03:40:52.563Z,13.87
2018-04-02T03:43:22.267Z,11.30
2018-04-02T03:45:51.470Z,12.83
2018-04-02T03:48:20.454Z,11.07
2018-04-02T03:50:49.531Z,11.10
2018-04-02T03:53:19.587Z,11.70
2018-04-02T03:55:48.818Z,13.43
2018-04-02T03:58:17.784Z,14.93
2018-04-02T04:00:46.911Z,13.90
2018-04-02T04:03:15.930Z,13.20
2018-04-02T04:05:45.026Z,13.47
2018-04-02T04:08:13.990Z,12.10
2018-04-02T04:10:43.122Z,12.77
2018-04-02T04:13:13.074Z,13.90
2018-04-02T04:15:42.478Z,12.73
2018-04-02T04:18:12.461Z,13.07
2018-04-02T04:20:41.727Z,11.93
2018-04-02T04:23:10.799Z,11.63
2018-04-02T04:25:40.099Z,12.73
2018-04-02T04:28:09.971Z,13.30
2018-04-02T04:30:39.111Z,13.37
2018-04-02T04:33:08.230Z,13.17
2018-04-02T04:35:37.519Z,13.60
2018-04-02T04:38:06.614Z,14.00
2018-04-02T04:40:35.838Z,15.00
2018-04-02T04:43:04.836Z,14.03
2018-04-02T04:45:33.958Z,13.27
2018-04-02T04:48:02.926Z,15.73
2018-04-02T04:50:32.059Z,13.77
2018-04-02T04:53:01.075Z,15.73
2018-04-02T04:55:30.186Z,14.43
2018-04-02T04:58:00.023Z,16.47
2018-04-02T05:00:29.298Z,16.10
2018-04-02T05:02:58.390Z,15.80
2018-04-02T05:05:27.590Z,16.73
2018-04-02T05:07:56.575Z,19.07
2018-04-02T05:10:25.510Z,17.00
2018-04-02T05:12:54.679Z,16.50
2018-04-02T05:15:24.629Z,16.13
2018-04-02T05:17:53.793Z,14.90
2018-04-02T05:20:23.041Z,11.37
2018-04-02T05:22:51.977Z,7.77
2018-04-02T05:25:22.036Z,6.90
2018-04-02T05:27:51.147Z,6.93
2018-04-02T05:30:21.108Z,7.90
2018-04-02T05:32:50.995Z,7.00
2018-04-02T05:35:20.096Z,7.60
2018-04-02T05:37:49.063Z,8.07
2018-04-02T05:40:18.193Z,5.97
2018-04-02T05:42:47.122Z,7.47
2018-04-02T05:45:16.248Z,8.03
2018-04-02T05:47:45.095Z,6.83
2018-04-02T05:50:14.211Z,5.93
2018-04-02T05:52:44.022Z,6.93
2018-04-02T05:55:13.843Z,7.10
2018-04-02T05:57:43.120Z,6.53
2018-04-02T06:00:12.643Z,6.43
2018-04-02T06:02:42.336Z,6.10
2018-04-02T06:05:11.388Z,6.50
2018-04-02T06:07:40.327Z,7.10
2018-04-02T06:10:09.434Z,7.07
2018-04-02T06:12:38.725Z,7.17
2018-04-02T06:15:07.823Z,7.00
2018-04-02T06:17:37.035Z,6.30
2018-04-02T06:20:06.553Z,6.90
2018-04-02T06:22:35.639Z,6.30
2018-04-02T06:25:04.871Z,6.00
2018-04-02T06:27:33.868Z,6.20
2018-04-02T06:30:02.991Z,7.00
2018-04-02T06:32:32.875Z,6.47
2018-04-02T06:35:01.973Z,6.00
2018-04-02T06:37:31.042Z,8.20
2018-04-02T06:40:00.342Z,6.10
2018-04-02T06:42:30.359Z,6.87
2018-04-02T06:45:00.003Z,6.67
2018-04-02T06:47:28.998Z,7.60
2018-04-02T06:49:58.193Z,6.53
2018-04-02T06:52:27.153Z,5.33
2018-04-02T06:54:56.318Z,6.80
2018-04-02T06:57:25.278Z,6.63
2018-04-02T06:59:54.478Z,7.10
2018-04-02T07:02:24.295Z,8.10
2018-04-02T07:04:53.590Z,7.17
2018-04-02T07:07:22.687Z,7.47
2018-04-02T07:09:51.683Z,6.10
2018-04-02T07:12:20.756Z,6.50
2018-04-02T07:14:50.536Z,8.13
2018-04-02T07:17:19.497Z,6.73
2018-04-02T07:19:48.659Z,8.13
2018-04-02T07:22:18.710Z,7.23
2018-04-02T07:24:47.910Z,6.57
2018-04-02T07:27:17.007Z,6.90
2018-04-02T07:29:46.070Z,7.80
2018-04-02T07:32:15.877Z,10.10
2018-04-02T07:34:45.443Z,7.40
2018-04-02T07:37:14.556Z,7.57
2018-04-02T07:39:43.651Z,7.30
2018-04-02T07:42:13.554Z,7.70
2018-04-02T07:44:42.804Z,7.77
2018-04-02T07:47:12.778Z,8.70
2018-04-02T07:49:42.050Z,7.40
2018-04-02T07:52:11.143Z,8.73
2018-04-02T07:54:40.418Z,7.97
2018-04-02T07:57:10.338Z,8.50
2018-04-02T07:59:39.563Z,8.00
2018-04-02T08:02:08.659Z,8.90
2018-04-02T08:04:37.830Z,8.10
2018-04-02T08:07:06.931Z,8.43
2018-04-02T08:09:36.232Z,7.97
2018-04-02T08:12:06.140Z,7.77
2018-04-02T08:14:35.375Z,8.13
2018-04-02T08:17:04.654Z,8.17
2018-04-02T08:19:34.769Z,8.23
2018-04-02T08:22:03.786Z,7.87
2018-04-02T08:24:33.271Z,7.43
2018-04-02T08:27:02.366Z,8.13
2018-04-02T08:29:32.517Z,7.90
2018-04-02T08:32:01.616Z,7.77
2018-04-02T08:34:30.739Z,7.90
2018-04-02T08:36:59.779Z,7.97
2018-04-02T08:39:28.978Z,7.70
2018-04-02T08:41:57.871Z,8.30
2018-04-02T08:44:27.062Z,8.20
2018-04-02T08:46:56.167Z,8.40
2018-04-02T08:49:26.180Z,7.47
2018-04-02T08:51:55.213Z,7.53
2018-04-02T08:54:24.483Z,7.70
2018-04-02T08:56:54.597Z,7.43
2018-04-02T08:59:23.827Z,7.60
2018-04-02T09:01:52.926Z,7.10
2018-04-02T09:04:22.198Z,6.43
2018-04-02T09:06:52.174Z,7.80
2018-04-02T09:09:21.443Z,7.13
2018-04-02T09:11:50.514Z,7.27
2018-04-02T09:14:20.618Z,6.90
2018-04-02T09:16:49.790Z,7.70
2018-04-02T09:19:19.605Z,8.00
2018-04-02T09:21:49.455Z,7.90
2018-04-02T09:24:18.581Z,7.73
2018-04-02T09:26:48.090Z,7.60
2018-04-02T09:29:17.228Z,8.13
2018-04-02T09:31:47.107Z,7.20
2018-04-02T09:34:16.514Z,8.57
2018-04-02T09:36:45.470Z,7.80
2018-04-02T09:39:14.643Z,8.70
2018-04-02T09:41:43.603Z,7.63
2018-04-02T09:44:12.722Z,7.33
2018-04-02T09:46:41.704Z,8.00
2018-04-02T09:49:10.819Z,7.20
2018-04-02T09:51:39.832Z,7.60
2018-04-02T09:54:08.962Z,8.53
2018-04-02T09:56:37.982Z,6.63
2018-04-02T09:59:07.010Z,7.80
2018-04-02T10:01:37.064Z,7.77
2018-04-02T10:04:09.110Z,7.43
2018-04-02T10:06:37.983Z,7.17
2018-04-02T10:09:07.350Z,7.80
2018-04-02T10:11:36.403Z,7.10
2018-04-02T10:14:05.475Z,6.60
2018-04-02T10:16:35.355Z,7.50
2018-04-02T10:19:04.627Z,6.90
2018-04-02T10:21:34.604Z,7.60
2018-04-02T10:24:03.879Z,7.30
2018-04-02T10:26:33.656Z,8.27
2018-04-02T10:29:02.859Z,7.60
2018-04-02T10:31:32.770Z,7.37
2018-04-02T10:34:02.891Z,7.17
2018-04-02T10:36:32.086Z,7.87
2018-04-02T10:39:01.324Z,7.87
2018-04-02T10:41:30.419Z,6.77
2018-04-02T10:43:59.692Z,7.57
2018-04-02T10:46:28.785Z,6.30
2018-04-02T10:48:58.688Z,8.03
2018-04-02T10:51:27.861Z,7.77
2018-04-02T10:53:57.732Z,6.87
2018-04-02T10:56:26.795Z,6.93
2018-04-02T10:58:55.762Z,7.90
2018-04-02T11:01:24.729Z,7.20
2018-04-02T11:03:53.831Z,7.13
2018-04-02T11:06:22.824Z,6.20
2018-04-02T11:08:51.945Z,8.07
2018-04-02T11:11:20.883Z,7.13
2018-04-02T11:13:50.926Z,8.40
2018-04-02T11:16:20.202Z,6.43
2018-04-02T11:18:49.914Z,6.83
2018-04-02T11:21:19.670Z,6.90
2018-04-02T11:23:48.927Z,6.40
2018-04-02T11:26:18.024Z,7.07
2018-04-02T11:28:48.070Z,6.37
2018-04-02T11:31:17.264Z,7.57
2018-04-02T11:33:46.540Z,6.30
2018-04-02T11:36:16.514Z,7.20
2018-04-02T11:38:45.788Z,6.60
2018-04-02T11:41:14.856Z,6.20
2018-04-02T11:43:45.035Z,6.97
2018-04-02T11:46:14.723Z,6.50
2018-04-02T11:48:43.847Z,6.50
2018-04-02T11:51:13.694Z,7.00
2018-04-02T11:53:42.901Z,8.13
2018-04-02T11:56:11.999Z,7.40
2018-04-02T11:58:42.117Z,8.30
2018-04-02T12:01:11.827Z,7.50
2018-04-02T12:03:40.955Z,6.20
2018-04-02T12:06:10.016Z,6.57
2018-04-02T12:08:39.963Z,6.73
2018-04-02T12:11:09.058Z,6.90
2018-04-02T12:13:38.331Z,6.03
2018-04-02T12:16:07.374Z,6.47
2018-04-02T12:18:36.563Z,7.57
2018-04-02T12:21:05.597Z,6.83
2018-04-02T12:23:34.787Z,6.80
2018-04-02T12:26:03.717Z,7.53
2018-04-02T12:28:32.879Z,6.30
2018-04-02T12:31:01.840Z,5.90
2018-04-02T12:33:31.076Z,7.60
2018-04-02T12:36:00.941Z,6.57
2018-04-02T12:38:30.113Z,5.53
2018-04-02T12:40:59.119Z,5.90
2018-04-02T12:43:28.310Z,6.43
2018-04-02T12:45:58.111Z,6.50
2018-04-02T12:48:28.194Z,6.50
2018-04-02T12:50:57.171Z,6.73
2018-04-02T12:53:26.304Z,9.00
2018-04-02T12:55:55.264Z,6.10
2018-04-02T12:58:24.390Z,6.37
2018-04-02T13:00:53.419Z,7.10
2018-04-02T13:03:22.811Z,6.60
2018-04-02T13:05:52.018Z,6.60
2018-04-02T13:08:21.526Z,6.70
2018-04-02T13:10:52.194Z,5.53
2018-04-02T13:13:21.318Z,7.83
2018-04-02T13:15:50.292Z,6.73
2018-04-02T13:18:19.414Z,6.43
2018-04-02T13:20:48.378Z,7.00
2018-04-02T13:23:18.466Z,7.00
2018-04-02T13:25:47.560Z,8.07
2018-04-02T13:28:16.763Z,8.50
2018-04-02T13:30:45.842Z,6.70
2018-04-02T13:33:14.992Z,6.90
2018-04-02T13:35:44.042Z,8.27
2018-04-02T13:38:13.256Z,7.20
2018-04-02T13:40:43.067Z,5.67
2018-04-02T13:43:12.258Z,6.50
2018-04-02T13:45:41.364Z,5.87
2018-04-02T13:48:11.375Z,6.87
2018-04-02T13:50:40.399Z,7.63
2018-04-02T13:53:09.773Z,6.67
2018-04-02T13:55:38.771Z,7.00
2018-04-02T13:58:07.903Z,6.47
2018-04-02T14:00:36.963Z,6.90
2018-04-02T14:03:06.979Z,6.93
2018-04-02T14:05:36.794Z,6.47
2018-04-02T14:08:06.112Z,6.73
2018-04-02T14:10:35.356Z,5.87
2018-04-02T14:13:05.270Z,6.90
2018-04-02T14:15:34.247Z,6.17
2018-04-02T14:18:04.806Z,7.47
2018-04-02T14:20:34.782Z,7.60
2018-04-02T14:23:04.054Z,6.20
2018-04-02T14:25:33.150Z,6.67
2018-04-02T14:28:03.677Z,6.17
2018-04-02T14:30:32.678Z,6.57
2018-04-02T14:33:01.849Z,8.13
2018-04-02T14:35:31.722Z,7.10
2018-04-02T14:38:01.094Z,6.20
2018-04-02T14:40:31.072Z,6.07
2018-04-02T14:43:00.443Z,5.87
2018-04-02T14:45:29.507Z,6.67
2018-04-02T14:47:59.586Z,6.40
2018-04-02T14:50:28.731Z,5.20
2018-04-02T14:52:58.063Z,5.83
2018-04-02T14:55:27.535Z,6.20
2018-04-02T14:57:57.550Z,6.60
2018-04-02T15:00:26.755Z,6.10
2018-04-02T15:02:55.986Z,6.40
2018-04-02T15:05:24.983Z,7.40
2018-04-02T15:07:54.102Z,6.90
2018-04-02T15:10:23.212Z,7.10
2018-04-02T15:12:52.230Z,6.10
2018-04-02T15:15:21.228Z,5.20
2018-04-02T15:17:51.253Z,6.00
2018-04-02T15:20:21.253Z,5.90
2018-04-02T15:22:50.562Z,5.90
2018-04-02T15:25:19.698Z,6.00
2018-04-02T15:27:48.866Z,5.77
2018-04-02T15:30:17.968Z,6.00
2018-04-02T15:32:47.264Z,5.97
2018-04-02T15:35:17.135Z,5.83
2018-04-02T15:37:46.669Z,5.93
2018-04-02T15:58:33.587Z,8.47
2018-04-02T16:01:03.427Z,7.20
2018-04-02T16:03:33.567Z,9.13
2018-04-02T16:06:03.579Z,7.57
2018-04-02T16:08:33.464Z,7.30
2018-04-02T16:11:02.320Z,8.67
2018-04-02T16:13:31.451Z,8.17
2018-04-02T16:16:00.406Z,6.73
2018-04-02T16:18:29.534Z,6.57
2018-04-02T16:20:58.571Z,7.33
2018-04-02T16:23:27.731Z,8.03
2018-04-02T16:25:56.659Z,6.83
2018-04-02T16:28:25.758Z,6.20
2018-04-02T16:30:55.598Z,7.20
2018-04-02T16:33:24.875Z,6.30
2018-04-02T16:35:53.968Z,6.37
2018-04-02T16:38:23.203Z,6.60
2018-04-02T16:40:52.268Z,6.70
2018-04-02T16:43:21.363Z,6.47
2018-04-02T16:45:51.099Z,7.27
2018-04-02T16:48:20.379Z,6.43
2018-04-02T16:50:49.475Z,7.27
2018-04-02T16:53:18.758Z,7.10
2018-04-02T16:55:47.699Z,6.73
2018-04-02T16:58:16.826Z,7.60
2018-04-02T17:00:46.706Z,7.23
2018-04-02T17:03:15.982Z,5.70
2018-04-02T17:05:45.080Z,6.87
2018-04-02T17:08:15.196Z,7.20
2018-04-02T17:10:44.834Z,7.20
2018-04-02T17:13:13.970Z,6.23
2018-04-02T17:15:43.845Z,6.47
2018-04-02T17:18:12.806Z,7.03
2018-04-02T17:20:41.934Z,7.53
2018-04-02T17:23:11.206Z,7.00
2018-04-02T17:25:41.083Z,6.50
2018-04-02T17:28:10.428Z,7.60
2018-04-02T17:30:39.551Z,6.90
2018-04-02T17:33:08.564Z,7.20
2018-04-02T17:35:37.643Z,8.20
2018-04-02T17:38:06.811Z,7.63
2018-04-02T17:40:35.915Z,6.30
2018-04-02T17:43:05.152Z,6.63
2018-04-02T17:45:34.144Z,7.80
2018-04-02T17:48:03.267Z,7.70
2018-04-02T17:50:32.192Z,6.93
2018-04-02T17:53:01.301Z,7.60
2018-04-02T17:55:31.130Z,7.30
2018-04-02T17:58:00.414Z,7.90
2018-04-02T18:00:29.511Z,7.47
2018-04-02T18:02:59.554Z,7.73
2018-04-02T18:05:28.642Z,7.43
2018-04-02T18:07:57.923Z,8.07
2018-04-02T18:10:27.018Z,7.23
2018-04-02T18:12:57.240Z,7.13
2018-04-02T18:15:26.835Z,6.83
2018-04-02T18:17:55.951Z,7.13
2018-04-02T18:20:25.132Z,7.10
2018-04-02T18:22:55.060Z,8.27
2018-04-02T18:25:24.954Z,7.30
2018-04-02T18:27:54.218Z,7.43
2018-04-02T18:30:23.416Z,7.00
2018-04-02T18:32:52.677Z,7.40
2018-04-02T18:35:21.776Z,6.93
2018-04-02T18:37:51.818Z,7.90
2018-04-02T18:40:20.815Z,8.07
2018-04-02T18:42:50.097Z,8.47
2018-04-02T18:45:20.070Z,8.30
2018-04-02T18:47:50.114Z,9.37
2018-04-02T18:50:19.118Z,7.60
2018-04-02T18:52:49.170Z,8.00
2018-04-02T18:55:18.236Z,7.20
2018-04-02T18:57:47.435Z,8.07
2018-04-02T19:00:17.407Z,7.73
2018-04-02T19:02:46.746Z,7.37
2018-04-02T19:05:15.850Z,8.20
2018-04-02T19:07:45.655Z,8.07
2018-04-02T19:10:14.555Z,8.93
2018-04-02T19:12:43.614Z,9.03
2018-04-02T19:15:12.580Z,8.50
2018-04-02T19:17:41.813Z,8.37
2018-04-02T19:20:10.775Z,7.40
2018-04-02T19:22:39.894Z,9.00
2018-04-02T19:25:08.862Z,7.13
2018-04-02T19:27:38.424Z,9.17
2018-04-02T19:30:07.635Z,8.13
2018-04-02T19:32:37.623Z,8.77
2018-04-02T19:35:06.583Z,8.20
2018-04-02T19:37:35.730Z,8.77
2018-04-02T19:40:04.882Z,8.87
2018-04-02T19:42:34.207Z,7.87
2018-04-02T19:45:04.156Z,9.30
2018-04-02T19:47:33.466Z,8.10
2018-04-02T19:50:03.307Z,8.23
2018-04-02T19:52:32.474Z,9.00
2018-04-02T19:55:01.574Z,8.63
2018-04-02T19:57:31.455Z,9.70
2018-04-02T20:00:00.646Z,9.73
2018-04-02T20:02:30.458Z,10.33
2018-04-02T20:05:00.347Z,8.57
2018-04-02T20:07:29.623Z,8.70
2018-04-02T20:09:59.594Z,8.40
2018-04-02T20:12:28.939Z,8.53
2018-04-02T20:14:58.678Z,7.50
2018-04-02T20:17:27.820Z,8.00
2018-04-02T20:19:56.779Z,9.40
2018-04-02T20:22:25.898Z,8.77
2018-04-02T20:24:54.871Z,8.40
2018-04-02T20:27:24.138Z,9.20
2018-04-02T20:29:53.114Z,11.00
2018-04-02T20:32:22.056Z,12.07
2018-04-02T20:34:51.110Z,11.50
2018-04-02T20:37:20.170Z,10.87
2018-04-02T20:39:50.057Z,11.00
2018-04-02T20:42:19.330Z,12.50
2018-04-02T20:44:48.355Z,13.57
2018-04-02T20:47:17.528Z,12.53
2018-04-02T20:49:47.270Z,11.03
2018-04-02T20:52:16.699Z,12.83
2018-04-02T20:54:46.486Z,12.30
2018-04-02T20:57:15.615Z,12.20
2018-04-02T20:59:44.542Z,11.97
2018-04-02T21:02:13.702Z,11.87
2018-04-02T21:04:42.643Z,11.90
2018-04-02T21:07:11.866Z,12.80
2018-04-02T21:09:40.858Z,11.07
2018-04-02T21:12:09.928Z,11.67
2018-04-02T21:14:38.965Z,11.37
2018-04-02T21:17:08.082Z,10.70
2018-04-02T21:19:38.035Z,10.40
2018-04-02T21:22:07.344Z,10.87
2018-04-02T21:24:36.335Z,11.03
2018-04-02T21:27:05.635Z,10.43
2018-04-02T21:29:36.331Z,11.33
2018-04-02T21:32:05.431Z,11.10
2018-04-02T21:34:34.351Z,9.83
2018-04-02T21:37:03.851Z,11.10
2018-04-02T21:39:33.023Z,10.67
2018-04-02T21:42:02.366Z,10.03
2018-04-02T21:44:31.462Z,10.30
2018-04-02T21:47:01.345Z,11.00
2018-04-02T21:49:30.254Z,11.43
2018-04-02T21:51:59.476Z,10.33
2018-04-02T21:54:29.127Z,12.30
2018-04-02T21:56:58.393Z,10.80
2018-04-02T21:59:27.483Z,11.40
2018-04-02T22:01:57.554Z,10.53
2018-04-02T22:04:26.766Z,10.23
2018-04-02T22:07:05.279Z,11.30
2018-04-02T22:09:35.320Z,11.00
2018-04-02T22:12:04.531Z,10.93
2018-04-02T22:14:33.656Z,11.93
2018-04-02T22:17:02.837Z,11.37
2018-04-02T22:19:31.935Z,9.57
2018-04-02T22:22:01.167Z,10.23
2018-04-02T22:24:30.156Z,12.03
2018-04-02T22:26:59.286Z,11.80
2018-04-02T22:29:28.247Z,12.03
2018-04-02T22:31:57.376Z,11.40
2018-04-02T22:34:26.298Z,13.13
2018-04-02T22:36:55.559Z,12.30
2018-04-02T22:39:24.739Z,12.13
2018-04-02T22:41:53.756Z,11.63
2018-04-02T22:44:22.684Z,11.07
2018-04-02T22:46:52.254Z,11.17
2018-04-02T22:49:21.530Z,12.07
2018-04-02T22:51:50.802Z,10.93
2018-04-02T22:54:20.035Z,10.53
2018-04-02T22:56:49.130Z,11.63
2018-04-02T22:59:18.028Z,12.63
2018-04-02T23:01:47.150Z,11.27
2018-04-02T23:04:16.115Z,12.23
2018-04-02T23:06:45.243Z,14.13
2018-04-02T23:09:14.198Z,11.83
2018-04-02T23:11:44.323Z,13.30
2018-04-02T23:14:13.494Z,12.70
2018-04-02T23:16:43.311Z,10.67
2018-04-02T23:19:12.912Z,13.40
2018-04-02T23:21:42.628Z,11.60
2018-04-02T23:24:11.655Z,10.77
2018-04-02T23:26:40.615Z,12.03
2018-04-02T23:29:09.638Z,10.63
2018-04-02T23:31:38.775Z,10.53
2018-04-02T23:34:08.646Z,10.53
2018-04-02T23:36:37.927Z,12.30
2018-04-02T23:39:07.023Z,12.20
2018-04-02T23:41:36.366Z,11.00
2018-04-02T23:44:05.307Z,10.23
2018-04-02T23:46:35.259Z,10.00
2018-04-02T23:49:04.535Z,11.90
2018-04-02T23:51:33.767Z,10.87
2018-04-02T23:54:02.764Z,9.90
2018-04-02T23:56:32.074Z,10.10
2018-04-02T23:59:01.231Z,12.03
